• Join FlightAware (Why Join?)
  • Login
  • US Flag 
12:20PM EDT


 

Airport Tracker/Info


-or-


 

Live Flight TrackerFlight Track Log ✈ ANT207 ✈ 15-Aug-2013 ✈ CYDA - CYEV

Flight Track Log - Related Links

Times and Time Zones

All times are in EDT time to prevent confusion due to time zone crossing. See the ANT207 flight status page for this flight to view local times or setup timezone preferences in your user account.

Time Position Orientation Groundspeed Altitude Reporting Facility
EDT Latitude Longitude Course Direction KTS MPH feet Rate Location/Type
12:10PM 64.7911 -138.2590 26° Northeast  Level FlightAware Approximate
12:11PM 64.8451 -138.1963 26° Northeast  Level FlightAware Approximate
12:12PM 64.8991 -138.1333 26° Northeast  Level FlightAware Approximate
12:13PM 64.9530 -138.0700 26° Northeast  Level FlightAware Approximate
12:14PM 65.0070 -138.0065 26° Northeast  Level FlightAware Approximate
12:15PM 65.0609 -137.9427 27° Northeast  Level FlightAware Approximate
12:16PM 65.1148 -137.8787 27° Northeast  Level FlightAware Approximate
12:17PM 65.1686 -137.8144 27° Northeast  Level FlightAware Approximate
12:18PM 65.2225 -137.7498 27° Northeast  Level FlightAware Approximate
12:19PM 65.2763 -137.6850 27° Northeast  Level FlightAware Approximate
12:20PM 65.3300 -137.6199 27° Northeast  Level FlightAware Approximate
12:21PM 65.3838 -137.5546 27° Northeast  Level FlightAware Approximate
12:22PM 65.4375 -137.4890 27° Northeast  Level FlightAware Approximate
12:23PM 65.4912 -137.4231 27° Northeast  Level FlightAware Approximate
12:24PM 65.5449 -137.3569 27° Northeast  Level FlightAware Approximate
12:25PM 65.5985 -137.2905 27° Northeast  Level FlightAware Approximate
12:26PM 65.6521 -137.2238 27° Northeast  Level FlightAware Approximate
12:27PM 65.7057 -137.1568 27° Northeast  Level FlightAware Approximate
12:28PM 65.7592 -137.0896 27° Northeast  Level FlightAware Approximate
12:29PM 65.8127 -137.0220 27° Northeast  Level FlightAware Approximate
12:30PM 65.8662 -136.9542 27° Northeast  Level FlightAware Approximate
12:31PM 65.9197 -136.8861 27° Northeast  Level FlightAware Approximate
12:32PM 65.9731 -136.8177 28° Northeast  Level FlightAware Approximate
12:33PM 66.0265 -136.7490 28° Northeast  Level FlightAware Approximate
12:34PM 66.0799 -136.6801 28° Northeast  Level FlightAware Approximate
12:35PM 66.1332 -136.6108 28° Northeast  Level FlightAware Approximate
12:36PM 66.1865 -136.5412 28° Northeast  Level FlightAware Approximate
12:37PM 66.2398 -136.4714 28° Northeast  Level FlightAware Approximate
12:38PM 66.2930 -136.4013 28° Northeast  Level FlightAware Approximate
12:39PM 66.3462 -136.3308 28° Northeast  Level FlightAware Approximate
12:40PM 66.3994 -136.2601 28° Northeast  Level FlightAware Approximate
12:41PM 66.4525 -136.1891 28° Northeast  Level FlightAware Approximate
12:42PM 66.5057 -136.1177 28° Northeast  Level FlightAware Approximate
12:43PM 66.5587 -136.0461 28° Northeast  Level FlightAware Approximate
12:44PM 66.6118 -135.9742 28° Northeast  Level FlightAware Approximate
12:45PM 66.6648 -135.9019 28° Northeast  Level FlightAware Approximate
12:46PM 66.7178 -135.8293 28° Northeast  Level FlightAware Approximate
12:47PM 66.7707 -135.7564 28° Northeast  Level FlightAware Approximate
12:48PM 66.8236 -135.6832 29° Northeast  Level FlightAware Approximate
12:49PM 66.8765 -135.6097 29° Northeast  Level FlightAware Approximate
12:50PM 66.9294 -135.5359 29° Northeast  Level FlightAware Approximate
12:51PM 66.9822 -135.4618 29° Northeast  Level FlightAware Approximate
12:52PM 67.0349 -135.3873 29° Northeast  Level FlightAware Approximate
12:53PM 67.0877 -135.3125 29° Northeast  Level FlightAware Approximate
12:54PM 67.1404 -135.2374 29° Northeast  Level FlightAware Approximate
12:55PM 67.1930 -135.1619 29° Northeast  Level FlightAware Approximate
12:56PM 67.2457 -135.0861 29° Northeast  Level FlightAware Approximate
12:57PM 67.2983 -135.0100 29° Northeast  Level FlightAware Approximate
12:58PM 67.3507 -134.9329 30° Northeast  Level FlightAware Approximate
12:59PM 67.4030 -134.8552 30° Northeast  Level FlightAware Approximate
01:00PM 67.4553 -134.7771 30° Northeast  Level FlightAware Approximate
01:01PM 67.5075 -134.6986 30° Northeast  Level FlightAware Approximate
01:02PM 67.5597 -134.6198 30° Northeast  Level FlightAware Approximate
01:03PM 67.6119 -134.5406 30° Northeast  Level FlightAware Approximate
01:04PM 67.6647 -134.4643 29° Northeast  Level FlightAware Approximate
01:05PM 67.7175 -134.3880 29° Northeast  Level FlightAware Approximate
01:06PM 67.7702 -134.3109 32° Northeast  Level FlightAware Approximate
01:07PM 67.8216 -134.2274 32° Northeast  Level FlightAware Approximate
01:08PM 67.8729 -134.1436 32° Northeast  Level FlightAware Approximate
01:09PM 67.9241 -134.0594 32° Northeast  Level FlightAware Approximate
01:10PM 67.9770 -133.9830 25° Northeast  Level FlightAware Approximate
01:11PM 68.0308 -133.9108 31° Northeast  Level FlightAware Approximate
01:12PM 68.0825 -133.8281 31° Northeast  Level FlightAware Approximate
01:13PM 68.1334 -133.7416 33° Northeast  Level FlightAware Approximate
01:14PM 68.1839 -133.6532 33° Northeast  Level FlightAware Approximate
01:15PM 68.2345 -133.5649 29° Northeast  Level FlightAware Approximate
01:16PM 68.2872 -133.4860 29° Northeast  Level FlightAware Approximate
01:17PM 68.3000 -133.4667 29° Northeast  Level FlightAware Approximate
01:18PM 68.3042 -133.4828 29° Northeast  Level Estimated
01:19PM 68.3042 -133.4828 29° Northeast  Level Estimated
01:20PM 68.3042 -133.4828 29° Northeast  Level Estimated
01:21PM 68.3042 -133.4828 29° Northeast  Level Estimated
01:22PM 68.3042 -133.4828 29° Northeast  Level Estimated
01:23PM 68.3042 -133.4828 29° Northeast  Level Estimated
01:24PM 68.3042 -133.4828 29° Northeast  Level Estimated
01:25PM 68.3042 -133.4828 29° Northeast  Level Estimated
01:26PM 68.3042 -133.4828 29° Northeast  Level Estimated
01:27PM 68.3042 -133.4828 29° Northeast  Level Estimated
01:28PM 68.3042 -133.4828 29° Northeast  Level Estimated
01:29PM 68.3042 -133.4828 29° Northeast  Level Estimated
01:30PM 68.3042 -133.4828 29° Northeast  Level Estimated
01:31PM 68.3042 -133.4828 29° Northeast  Level Estimated